createdAt,value
2019-01-15T00:00:22.317Z,9.73
2019-01-15T00:05:28.257Z,15.60
2019-01-15T00:10:34.368Z,5.70
2019-01-15T00:15:40.139Z,7.73
2019-01-15T00:20:45.632Z,12.13
2019-01-15T00:25:51.071Z,13.20
2019-01-15T00:30:56.595Z,14.30
2019-01-15T00:36:02.044Z,9.70
2019-01-15T00:41:08.183Z,11.43
2019-01-15T00:46:13.603Z,9.37
2019-01-15T00:51:19.053Z,9.03
2019-01-15T00:56:24.527Z,11.17
2019-01-15T01:01:30.327Z,11.77
2019-01-15T01:06:36.110Z,4.73
2019-01-15T01:11:41.532Z,11.53
2019-01-15T01:16:47.682Z,18.20
2019-01-15T01:21:53.503Z,14.97
2019-01-15T01:26:58.955Z,11.83
2019-01-15T01:32:04.750Z,11.30
2019-01-15T01:37:10.563Z,11.07
2019-01-15T01:42:16.326Z,8.00
2019-01-15T01:47:22.087Z,16.47
2019-01-15T01:52:27.587Z,9.37
2019-01-15T01:57:33.363Z,10.80
2019-01-15T02:02:39.466Z,15.83
2019-01-15T02:07:44.934Z,6.57
2019-01-15T02:12:51.203Z,14.07
2019-01-15T02:17:56.636Z,15.20
2019-01-15T02:23:02.484Z,20.00
2019-01-15T02:28:08.266Z,14.90
2019-01-15T02:33:13.696Z,12.27
2019-01-15T02:38:19.131Z,10.47
2019-01-15T02:43:24.635Z,19.93
2019-01-15T02:48:30.423Z,11.23
2019-01-15T02:53:36.223Z,10.33
2019-01-15T02:58:41.654Z,17.90
2019-01-15T03:03:47.094Z,12.93
2019-01-15T03:08:52.596Z,14.23
2019-01-15T03:13:58.058Z,12.17
2019-01-15T03:19:04.163Z,18.80
2019-01-15T03:24:09.612Z,17.60
2019-01-15T03:29:15.047Z,17.77
2019-01-15T03:34:20.511Z,19.90
2019-01-15T03:39:26.415Z,15.47
2019-01-15T03:44:31.901Z,21.87
2019-01-15T03:49:37.345Z,11.53
2019-01-15T03:54:43.136Z,17.33
2019-01-15T03:59:48.649Z,22.47
2019-01-15T04:04:54.383Z,20.27
2019-01-15T04:10:00.251Z,17.17
2019-01-15T04:15:07.031Z,16.83
2019-01-15T04:20:14.426Z,8.80
2019-01-15T04:25:20.559Z,12.33
2019-01-15T04:30:26.483Z,8.17
2019-01-15T04:35:32.287Z,11.60
2019-01-15T04:40:38.049Z,7.50
2019-01-15T04:45:43.831Z,17.83
2019-01-15T04:50:49.875Z,16.57
2019-01-15T04:55:55.665Z,15.13
2019-01-15T05:01:01.166Z,20.50
2019-01-15T05:06:06.986Z,8.50
2019-01-15T05:11:12.759Z,15.70
2019-01-15T05:16:18.562Z,17.23
2019-01-15T05:21:24.763Z,10.53
2019-01-15T05:26:30.195Z,8.90
2019-01-15T05:31:35.627Z,10.23
2019-01-15T05:36:41.095Z,15.03
2019-01-15T05:41:47.235Z,13.80
2019-01-15T05:46:52.683Z,14.30
2019-01-15T05:51:58.132Z,17.50
2019-01-15T05:57:03.600Z,18.63
2019-01-15T06:02:09.455Z,6.07
2019-01-15T06:07:15.259Z,8.73
2019-01-15T06:12:20.694Z,13.07
2019-01-15T06:17:26.866Z,11.87
2019-01-15T06:22:32.671Z,12.70
2019-01-15T06:27:38.546Z,20.13
2019-01-15T06:32:44.375Z,11.90
2019-01-15T06:37:51.416Z,7.60
2019-01-15T06:42:55.617Z,7.00
2019-01-15T06:48:01.322Z,10.43
2019-01-15T06:53:06.743Z,11.27
2019-01-15T06:58:12.153Z,23.60
2019-01-15T07:03:17.594Z,8.37
2019-01-15T07:08:23.667Z,10.60
2019-01-15T07:13:29.443Z,11.17
2019-01-15T07:18:35.198Z,13.50
2019-01-15T07:23:40.618Z,12.57
2019-01-15T07:28:46.083Z,9.03
2019-01-15T07:33:51.502Z,16.23
2019-01-15T07:38:57.254Z,10.97
2019-01-15T07:44:04.383Z,13.30
2019-01-15T07:49:09.271Z,7.20
2019-01-15T07:54:15.027Z,15.80
2019-01-15T07:59:20.436Z,18.87
2019-01-15T08:04:25.902Z,17.90
2019-01-15T08:09:31.322Z,7.17
2019-01-15T08:14:36.727Z,6.87
2019-01-15T08:19:42.491Z,11.53
2019-01-15T08:24:47.908Z,6.93
2019-01-15T08:29:53.682Z,13.43
2019-01-15T08:34:59.094Z,8.23
2019-01-15T08:40:04.762Z,11.50
2019-01-15T08:45:10.535Z,13.23
2019-01-15T08:50:18.642Z,9.50
2019-01-15T08:55:33.430Z,13.77
2019-01-15T09:00:39.264Z,11.30
2019-01-15T09:05:44.730Z,6.33
2019-01-15T09:10:50.552Z,11.10
2019-01-15T09:15:56.378Z,5.80
2019-01-15T09:21:02.328Z,13.63
2019-01-15T09:26:08.470Z,10.70
2019-01-15T09:31:13.939Z,6.33
2019-01-15T09:36:20.419Z,5.97
2019-01-15T09:41:26.599Z,7.90
2019-01-15T09:46:34.983Z,7.83
2019-01-15T09:51:40.843Z,8.97
2019-01-15T09:56:46.702Z,15.07
2019-01-15T10:01:53.179Z,7.67
2019-01-15T10:06:58.624Z,7.90
2019-01-15T10:12:04.412Z,6.43
2019-01-15T10:17:09.939Z,7.77
2019-01-15T10:22:15.803Z,5.40
2019-01-15T10:27:21.627Z,6.23
2019-01-15T10:32:54.440Z,11.03
2019-01-15T10:38:00.584Z,8.03
2019-01-15T10:43:06.770Z,14.07
2019-01-15T10:48:13.891Z,12.17
2019-01-15T10:53:19.714Z,13.90
2019-01-15T10:58:25.409Z,7.70
2019-01-15T11:03:30.914Z,8.67
2019-01-15T11:08:36.485Z,8.33
2019-01-15T11:13:42.275Z,17.43
2019-01-15T11:18:47.791Z,10.07
2019-01-15T11:23:53.959Z,10.93
2019-01-15T11:28:59.870Z,13.90
2019-01-15T11:34:05.409Z,8.87
2019-01-15T11:39:14.274Z,12.43
2019-01-15T11:44:19.684Z,8.70
2019-01-15T11:49:25.183Z,10.80
2019-01-15T11:54:30.919Z,8.27
2019-01-15T11:59:36.438Z,15.17
2019-01-15T12:04:48.822Z,12.00
2019-01-15T12:10:01.015Z,19.73
2019-01-15T12:15:12.567Z,12.63
2019-01-15T12:20:23.889Z,35.57
2019-01-15T12:26:32.038Z,12.70
2019-01-15T12:31:41.546Z,13.83
2019-01-15T12:37:25.487Z,13.27
2019-01-15T12:44:38.962Z,18.03
2019-01-15T12:49:50.264Z,14.43
2019-01-15T12:55:06.800Z,20.80
2019-01-15T13:01:25.628Z,17.97
2019-01-15T13:06:41.060Z,16.87
2019-01-15T13:11:52.152Z,15.77
2019-01-15T13:17:10.746Z,18.80
2019-01-15T13:22:36.184Z,17.87
2019-01-15T13:28:46.583Z,11.80
2019-01-15T13:34:02.475Z,14.60
2019-01-15T13:40:16.700Z,11.33
2019-01-15T13:45:28.183Z,13.93
2019-01-15T13:50:39.745Z,16.60
2019-01-15T13:55:59.317Z,19.53
2019-01-15T14:01:11.160Z,19.27
2019-01-15T14:08:29.654Z,21.83
2019-01-15T14:15:48.919Z,25.00
2019-01-15T14:20:57.389Z,28.07
2019-01-15T14:26:10.377Z,28.43
2019-01-15T14:31:22.511Z,26.63
2019-01-15T14:36:40.210Z,27.43
2019-01-15T14:42:23.315Z,28.33
2019-01-15T14:47:34.376Z,26.37
2019-01-15T14:52:45.231Z,24.53
2019-01-15T14:57:57.679Z,24.90
2019-01-15T15:03:08.601Z,27.50
2019-01-15T15:09:19.183Z,31.23
2019-01-15T15:14:30.634Z,24.60
2019-01-15T15:19:41.445Z,20.10
2019-01-15T15:24:52.948Z,28.03
2019-01-15T15:30:38.829Z,21.13
2019-01-15T15:35:50.121Z,23.57
2019-01-15T15:41:08.225Z,20.43
2019-01-15T15:46:19.058Z,22.50
2019-01-15T15:52:00.519Z,26.80
2019-01-15T15:57:11.163Z,28.87
2019-01-15T16:02:33.584Z,24.73
2019-01-15T16:07:45.278Z,31.27
2019-01-15T16:12:56.818Z,29.83
2019-01-15T16:18:08.840Z,37.47
2019-01-15T16:23:22.519Z,39.57
2019-01-15T16:29:04.630Z,36.57
2019-01-15T16:34:15.314Z,33.37
2019-01-15T16:39:24.814Z,34.03
2019-01-15T16:44:35.690Z,25.93
2019-01-15T16:49:48.294Z,30.23
2019-01-15T16:57:03.330Z,36.40
2019-01-15T17:02:22.302Z,39.53
2019-01-15T17:07:33.695Z,32.57
2019-01-15T17:12:44.110Z,29.73
2019-01-15T17:18:57.272Z,38.20
2019-01-15T17:24:13.338Z,36.40
2019-01-15T17:31:32.594Z,37.43
2019-01-15T17:36:45.111Z,27.50
2019-01-15T17:41:54.658Z,31.17
2019-01-15T17:47:39.458Z,31.80
2019-01-15T17:52:50.205Z,32.20
2019-01-15T17:58:00.991Z,29.70
2019-01-15T18:03:16.482Z,23.20
2019-01-15T18:08:27.251Z,28.57
2019-01-15T18:13:40.701Z,29.23
2019-01-15T18:18:51.530Z,22.50
2019-01-15T18:24:02.315Z,25.80
2019-01-15T18:29:21.883Z,31.20
2019-01-15T18:34:36.417Z,17.87
2019-01-15T18:39:45.936Z,22.80
2019-01-15T18:44:56.437Z,19.07
2019-01-15T18:50:22.343Z,26.37
2019-01-15T18:55:34.080Z,17.67
2019-01-15T19:00:59.962Z,16.47
2019-01-15T19:06:11.046Z,19.83
2019-01-15T19:13:27.757Z,18.47
2019-01-15T19:18:38.832Z,18.63
2019-01-15T19:23:48.378Z,15.77
2019-01-15T19:28:57.895Z,18.07
2019-01-15T19:35:10.406Z,15.00
2019-01-15T19:40:20.249Z,15.10
2019-01-15T19:45:31.016Z,17.50
2019-01-15T19:50:41.646Z,11.70
2019-01-15T19:56:07.639Z,18.00
2019-01-15T20:02:19.106Z,12.60
2019-01-15T20:07:29.810Z,15.60
2019-01-15T20:12:39.713Z,15.67
2019-01-15T20:17:50.469Z,12.13
2019-01-15T20:23:06.934Z,17.00
2019-01-15T20:28:18.278Z,17.37
2019-01-15T20:33:27.788Z,16.37
2019-01-15T20:38:37.295Z,16.97
2019-01-15T20:43:51.257Z,17.33
2019-01-15T20:49:02.804Z,16.33
2019-01-15T20:56:15.913Z,19.50
2019-01-15T21:01:34.487Z,13.67
2019-01-15T21:06:46.007Z,15.87
2019-01-15T21:11:56.502Z,14.20
2019-01-15T21:17:09.047Z,12.20
2019-01-15T21:24:21.570Z,14.83
2019-01-15T21:29:32.176Z,13.27
2019-01-15T21:34:43.187Z,14.17
2019-01-15T21:39:53.863Z,13.90
2019-01-15T21:45:03.362Z,13.57
2019-01-15T21:50:18.872Z,13.60
2019-01-15T21:55:32.836Z,13.23
2019-01-15T22:02:45.251Z,10.33
2019-01-15T22:07:59.780Z,12.50
2019-01-15T22:13:10.804Z,12.00
2019-01-15T22:18:21.510Z,11.13
2019-01-15T22:23:33.980Z,9.13
2019-01-15T22:28:44.700Z,7.17
2019-01-15T22:34:14.499Z,7.23
2019-01-15T22:39:27.352Z,8.63
2019-01-15T22:44:37.954Z,9.77
2019-01-15T22:49:47.502Z,10.43
2019-01-15T22:55:01.988Z,9.00
2019-01-15T23:00:24.034Z,10.63
2019-01-15T23:05:41.911Z,11.50
2019-01-15T23:10:53.042Z,15.37
2019-01-15T23:16:09.995Z,18.80
2019-01-15T23:21:20.740Z,18.93
2019-01-15T23:26:33.195Z,20.00
2019-01-15T23:31:42.711Z,20.67
2019-01-15T23:37:29.882Z,22.80
2019-01-15T23:42:43.489Z,21.63
2019-01-15T23:47:59.148Z,21.30
2019-01-15T23:53:10.095Z,18.17
2019-01-15T23:58:21.843Z,17.03
